createdAt,value
2022-10-07T00:00:42.233Z,10.10
2022-10-07T00:03:08.956Z,10.10
2022-10-07T00:05:35.649Z,10.20
2022-10-07T00:08:02.297Z,10.20
2022-10-07T00:10:29.564Z,10.10
2022-10-07T00:12:56.987Z,10.10
2022-10-07T00:15:23.650Z,10.10
2022-10-07T00:17:50.269Z,10.20
2022-10-07T00:20:16.881Z,10.20
2022-10-07T00:22:43.786Z,10.30
2022-10-07T00:25:10.473Z,10.30
2022-10-07T00:27:37.147Z,10.30
2022-10-07T00:30:04.267Z,10.30
2022-10-07T00:32:30.902Z,10.30
2022-10-07T00:34:57.538Z,10.30
2022-10-07T00:37:24.183Z,10.30
2022-10-07T00:39:50.845Z,10.30
2022-10-07T00:42:17.929Z,10.30
2022-10-07T00:44:45.934Z,10.30
2022-10-07T00:47:26.600Z,10.30
2022-10-07T00:50:03.456Z,10.30
2022-10-07T00:52:34.187Z,10.30
2022-10-07T00:55:05.785Z,10.30
2022-10-07T00:57:34.045Z,10.30
2022-10-07T01:00:02.549Z,10.30
2022-10-07T01:02:29.341Z,10.30
2022-10-07T01:04:59.384Z,10.30
2022-10-07T01:07:27.916Z,10.30
2022-10-07T01:09:57.367Z,10.20
2022-10-07T01:12:44.107Z,10.30
2022-10-07T01:15:20.056Z,10.30
2022-10-07T01:18:01.197Z,10.30
2022-10-07T01:20:36.883Z,10.20
2022-10-07T01:23:18.196Z,10.20
2022-10-07T01:26:22.530Z,10.10
2022-10-07T01:28:59.026Z,10.10
2022-10-07T01:31:33.304Z,10.10
2022-10-07T01:34:01.869Z,10.10
2022-10-07T01:36:28.842Z,10.00
2022-10-07T01:39:02.636Z,10.10
2022-10-07T01:41:31.388Z,10.10
2022-10-07T01:44:00.430Z,10.10
2022-10-07T01:46:28.268Z,10.00
2022-10-07T01:48:58.143Z,10.00
2022-10-07T01:51:29.631Z,9.90
2022-10-07T01:54:21.941Z,9.90
2022-10-07T01:56:58.670Z,10.00
2022-10-07T01:59:47.869Z,9.90
2022-10-07T02:02:39.968Z,9.80
2022-10-07T02:05:18.704Z,9.80
2022-10-07T02:08:16.311Z,9.70
2022-10-07T02:11:07.129Z,9.70
2022-10-07T02:14:01.876Z,9.60
2022-10-07T02:16:43.026Z,9.60
2022-10-07T02:19:15.951Z,9.50
2022-10-07T02:21:46.112Z,9.50
2022-10-07T02:24:14.731Z,9.60
2022-10-07T02:26:43.546Z,9.70
2022-10-07T02:29:12.310Z,9.70
2022-10-07T02:31:41.611Z,9.70
2022-10-07T02:34:12.557Z,9.80
2022-10-07T02:36:43.962Z,9.80
2022-10-07T02:39:12.158Z,9.80
2022-10-07T02:41:54.868Z,9.80
2022-10-07T02:44:36.052Z,9.80
2022-10-07T02:47:08.704Z,9.90
2022-10-07T02:49:39.780Z,9.80
2022-10-07T02:52:10.926Z,9.80
2022-10-07T02:54:51.720Z,9.90
2022-10-07T02:57:21.380Z,9.80
2022-10-07T02:59:49.869Z,9.80
2022-10-07T03:02:24.472Z,9.80
2022-10-07T03:04:52.193Z,9.80
2022-10-07T03:07:20.038Z,9.70
2022-10-07T03:09:46.848Z,9.70
2022-10-07T03:12:13.549Z,9.80
2022-10-07T03:14:40.955Z,9.80
2022-10-07T03:17:08.703Z,9.80
2022-10-07T03:19:37.184Z,9.80
2022-10-07T03:22:05.038Z,9.80
2022-10-07T03:24:34.334Z,9.80
2022-10-07T03:27:01.042Z,9.70
2022-10-07T03:29:28.021Z,9.80
2022-10-07T03:31:55.352Z,9.80
2022-10-07T03:34:23.087Z,9.80
2022-10-07T03:36:50.239Z,9.70
2022-10-07T03:39:17.001Z,9.70
2022-10-07T03:41:43.732Z,9.70
2022-10-07T03:44:10.718Z,9.70
2022-10-07T03:46:37.422Z,9.70
2022-10-07T03:49:04.752Z,9.70
2022-10-07T03:51:31.452Z,9.70
2022-10-07T03:53:58.971Z,9.70
2022-10-07T03:56:29.763Z,9.70
2022-10-07T03:58:56.445Z,9.60
2022-10-07T04:01:24.653Z,9.70
2022-10-07T04:03:56.259Z,9.60
2022-10-07T04:06:24.094Z,9.60
2022-10-07T04:08:55.231Z,9.60
2022-10-07T04:11:24.146Z,9.60
2022-10-07T04:13:53.352Z,9.60
2022-10-07T04:16:23.033Z,9.60
2022-10-07T04:18:50.040Z,9.60
2022-10-07T04:21:16.859Z,9.60
2022-10-07T04:23:43.530Z,9.60
2022-10-07T04:26:12.651Z,9.60
2022-10-07T04:28:44.293Z,9.60
2022-10-07T04:31:15.077Z,9.50
2022-10-07T04:33:46.396Z,9.60
2022-10-07T04:36:18.039Z,9.50
2022-10-07T04:38:50.835Z,9.50
2022-10-07T04:41:21.564Z,9.50
2022-10-07T04:43:57.355Z,9.40
2022-10-07T04:46:25.357Z,9.40
2022-10-07T04:48:59.564Z,9.50
2022-10-07T04:51:27.764Z,9.50
2022-10-07T04:53:57.863Z,9.50
2022-10-07T04:56:43.252Z,9.50
2022-10-07T04:59:12.579Z,9.50
2022-10-07T05:01:40.760Z,9.50
2022-10-07T05:04:11.901Z,9.50
2022-10-07T05:06:39.219Z,9.50
2022-10-07T05:09:06.346Z,9.50
2022-10-07T05:11:37.635Z,9.50
2022-10-07T05:14:12.434Z,9.50
2022-10-07T05:16:40.203Z,9.50
2022-10-07T05:19:08.495Z,9.50
2022-10-07T05:21:35.930Z,9.60
2022-10-07T05:24:04.198Z,9.60
2022-10-07T05:26:35.273Z,9.60
2022-10-07T05:29:03.735Z,9.60
2022-10-07T05:31:58.783Z,9.60
2022-10-07T05:34:28.963Z,9.60
2022-10-07T05:36:55.696Z,9.60
2022-10-07T05:39:23.531Z,9.60
2022-10-07T05:41:54.332Z,9.60
2022-10-07T05:44:26.191Z,9.60
2022-10-07T05:46:55.675Z,9.60
2022-10-07T05:49:23.095Z,9.60
2022-10-07T05:51:51.250Z,9.70
2022-10-07T05:54:18.374Z,9.60
2022-10-07T05:56:45.770Z,9.60
2022-10-07T05:59:14.660Z,9.70
2022-10-07T06:01:44.011Z,9.70
2022-10-07T06:04:24.722Z,9.60
2022-10-07T06:06:53.032Z,9.70
2022-10-07T06:09:41.553Z,9.70
2022-10-07T06:12:32.291Z,9.80
2022-10-07T06:15:03.696Z,9.80
2022-10-07T06:17:30.512Z,9.90
2022-10-07T06:20:00.479Z,9.90
2022-10-07T06:22:27.435Z,10.00
2022-10-07T06:24:57.762Z,10.00
2022-10-07T06:27:24.985Z,10.10
2022-10-07T06:29:52.113Z,10.10
2022-10-07T06:32:19.176Z,10.20
2022-10-07T06:34:45.892Z,10.30
2022-10-07T06:37:13.462Z,10.30
2022-10-07T06:39:41.027Z,10.40
2022-10-07T06:42:09.303Z,10.40
2022-10-07T06:44:45.572Z,10.50
2022-10-07T06:47:16.615Z,10.50
2022-10-07T06:49:45.125Z,10.50
2022-10-07T06:52:12.568Z,10.60
2022-10-07T06:54:40.455Z,10.60
2022-10-07T06:57:26.280Z,10.70
2022-10-07T06:59:56.126Z,10.80
2022-10-07T07:02:25.308Z,10.80
2022-10-07T07:04:57.295Z,10.80
2022-10-07T07:07:24.825Z,10.90
2022-10-07T07:09:52.056Z,11.00
2022-10-07T07:12:20.207Z,11.00
2022-10-07T07:14:47.471Z,11.00
2022-10-07T07:17:18.955Z,11.00
2022-10-07T07:19:45.704Z,11.10
2022-10-07T07:22:12.338Z,11.10
2022-10-07T07:24:41.233Z,11.10
2022-10-07T07:27:08.366Z,11.10
2022-10-07T07:29:35.886Z,11.10
2022-10-07T07:32:04.345Z,11.10
2022-10-07T07:34:36.181Z,11.10
2022-10-07T07:37:03.045Z,11.20
2022-10-07T07:39:35.997Z,11.20
2022-10-07T07:42:11.972Z,11.30
2022-10-07T07:44:40.144Z,11.30
2022-10-07T07:47:10.635Z,11.30
2022-10-07T07:49:38.343Z,11.40
2022-10-07T07:52:07.365Z,11.40
2022-10-07T07:54:41.361Z,11.50
2022-10-07T07:57:08.917Z,11.50
2022-10-07T07:59:37.327Z,11.50
2022-10-07T08:02:05.662Z,11.60
2022-10-07T08:04:33.251Z,11.70
2022-10-07T08:07:00.563Z,11.70
2022-10-07T08:09:28.106Z,11.70
2022-10-07T08:11:56.230Z,11.80
2022-10-07T08:14:23.402Z,11.90
2022-10-07T08:16:51.959Z,12.00
2022-10-07T08:19:19.484Z,12.00
2022-10-07T08:21:46.305Z,12.10
2022-10-07T08:24:17.963Z,12.20
2022-10-07T08:26:44.964Z,12.20
2022-10-07T08:29:14.088Z,12.30
2022-10-07T08:31:42.397Z,12.40
2022-10-07T08:34:10.641Z,12.50
2022-10-07T08:36:37.593Z,12.60
2022-10-07T08:39:06.491Z,12.70
2022-10-07T08:41:57.619Z,12.90
2022-10-07T08:44:38.580Z,13.00
2022-10-07T08:47:38.495Z,13.00
2022-10-07T08:50:19.151Z,13.00
2022-10-07T08:52:50.750Z,13.00
2022-10-07T08:55:18.736Z,13.10
2022-10-07T08:58:08.618Z,13.20
2022-10-07T09:00:57.323Z,13.20
2022-10-07T09:03:53.493Z,13.20
2022-10-07T09:06:38.523Z,13.30
2022-10-07T09:09:14.671Z,13.40
2022-10-07T09:11:45.569Z,13.50
2022-10-07T09:14:18.798Z,13.50
2022-10-07T09:16:47.308Z,13.60
2022-10-07T09:19:26.192Z,13.60
2022-10-07T09:21:57.436Z,13.60
2022-10-07T09:24:28.114Z,13.60
2022-10-07T09:26:57.907Z,13.60
2022-10-07T09:29:26.833Z,13.60
2022-10-07T09:31:53.843Z,13.60
2022-10-07T09:34:26.001Z,14.10
2022-10-07T09:37:09.763Z,14.90
2022-10-07T09:39:36.574Z,15.50
2022-10-07T09:42:07.838Z,15.70
2022-10-07T09:44:35.484Z,15.80
2022-10-07T09:47:22.864Z,15.90
2022-10-07T09:49:52.951Z,15.70
2022-10-07T09:52:26.515Z,15.60
2022-10-07T09:55:17.310Z,15.60
2022-10-07T09:57:44.384Z,15.60
2022-10-07T10:00:15.838Z,15.50
2022-10-07T10:02:55.430Z,15.40
2022-10-07T10:05:26.828Z,15.30
2022-10-07T10:07:56.823Z,15.30
2022-10-07T10:10:35.036Z,15.30
2022-10-07T10:13:04.370Z,15.30
2022-10-07T10:15:43.957Z,15.60
2022-10-07T10:18:39.843Z,16.00
2022-10-07T10:21:29.996Z,16.40
2022-10-07T10:24:11.500Z,16.70
2022-10-07T10:26:56.989Z,17.20
2022-10-07T10:29:38.101Z,17.60
2022-10-07T10:32:27.424Z,17.60
2022-10-07T10:35:08.073Z,17.80
2022-10-07T10:37:40.778Z,18.50
2022-10-07T10:40:22.441Z,18.90
2022-10-07T10:43:07.235Z,19.30
2022-10-07T10:45:58.754Z,19.70
2022-10-07T10:48:44.094Z,20.10
2022-10-07T10:51:31.554Z,20.40
2022-10-07T10:54:24.288Z,20.90
2022-10-07T10:57:06.589Z,21.20
2022-10-07T11:00:02.266Z,21.50
2022-10-07T11:02:37.760Z,21.30
2022-10-07T11:05:13.212Z,21.00
2022-10-07T11:07:44.371Z,20.80
2022-10-07T11:10:31.669Z,20.50
2022-10-07T11:13:10.694Z,20.00
2022-10-07T11:15:46.511Z,19.70
2022-10-07T11:18:32.107Z,19.50
2022-10-07T11:21:00.488Z,19.60
2022-10-07T11:23:41.599Z,19.50
2022-10-07T11:26:33.766Z,19.50
2022-10-07T11:29:11.268Z,19.70
2022-10-07T11:31:42.333Z,19.60
2022-10-07T11:34:27.665Z,19.40
2022-10-07T11:37:05.075Z,19.10
2022-10-07T11:39:31.917Z,19.00
2022-10-07T11:42:09.223Z,18.90
2022-10-07T11:45:02.507Z,18.80
2022-10-07T11:47:48.759Z,18.70
2022-10-07T11:50:38.963Z,18.60
2022-10-07T11:53:14.213Z,18.50
2022-10-07T11:55:45.125Z,18.50
2022-10-07T11:58:37.015Z,18.40
2022-10-07T12:01:25.581Z,18.50
2022-10-07T12:03:53.940Z,18.60
2022-10-07T12:06:20.703Z,18.70
2022-10-07T12:08:47.364Z,18.80
2022-10-07T12:11:15.078Z,19.00
2022-10-07T12:13:50.651Z,19.00
2022-10-07T12:16:23.347Z,19.20
2022-10-07T12:19:06.271Z,19.20
2022-10-07T12:22:02.890Z,19.20
2022-10-07T12:24:31.986Z,19.20
2022-10-07T12:27:21.547Z,19.20
2022-10-07T12:30:00.121Z,19.20
2022-10-07T12:33:00.648Z,19.20
2022-10-07T12:35:29.735Z,19.40
2022-10-07T12:38:20.319Z,19.40
2022-10-07T12:41:13.275Z,19.20
2022-10-07T12:44:08.054Z,19.00
2022-10-07T12:46:37.703Z,19.00
2022-10-07T12:49:14.027Z,18.90
2022-10-07T12:51:43.389Z,18.70
2022-10-07T12:54:24.732Z,18.70
2022-10-07T12:56:51.510Z,18.70
2022-10-07T12:59:48.307Z,18.60
2022-10-07T13:02:34.087Z,18.50
2022-10-07T13:05:19.737Z,18.40
2022-10-07T13:07:59.984Z,18.30
2022-10-07T13:11:00.396Z,18.20
2022-10-07T13:13:41.797Z,18.20
2022-10-07T13:16:24.696Z,18.20
2022-10-07T13:19:10.755Z,18.30
2022-10-07T13:21:43.682Z,18.30
2022-10-07T13:24:16.566Z,18.30
2022-10-07T13:26:45.882Z,18.30
2022-10-07T13:29:32.888Z,18.30
2022-10-07T13:32:05.386Z,18.30
2022-10-07T13:34:32.548Z,18.30
2022-10-07T13:36:59.274Z,18.30
2022-10-07T13:39:26.007Z,18.30
2022-10-07T13:41:58.327Z,18.30
2022-10-07T13:44:28.501Z,18.20
2022-10-07T13:47:04.446Z,18.20
2022-10-07T13:49:35.505Z,18.20
2022-10-07T13:52:06.204Z,18.20
2022-10-07T13:54:34.479Z,18.30
2022-10-07T13:57:02.330Z,18.30
2022-10-07T13:59:29.796Z,18.30
2022-10-07T14:02:01.219Z,18.30
2022-10-07T14:04:31.412Z,18.20
2022-10-07T14:07:00.164Z,18.20
2022-10-07T14:09:46.435Z,18.20
2022-10-07T14:12:29.996Z,18.10
2022-10-07T14:15:03.028Z,18.00
2022-10-07T14:17:34.541Z,18.00
2022-10-07T14:20:05.673Z,18.00
2022-10-07T14:22:37.977Z,18.00
2022-10-07T14:25:05.794Z,18.00
2022-10-07T14:27:54.916Z,18.00
2022-10-07T14:30:27.565Z,17.90
2022-10-07T14:33:23.600Z,17.80
2022-10-07T14:36:12.387Z,17.80
2022-10-07T14:38:41.007Z,17.80
2022-10-07T14:41:13.540Z,17.70
2022-10-07T14:43:44.595Z,17.60
2022-10-07T14:46:25.381Z,17.60
2022-10-07T14:48:53.707Z,17.60
2022-10-07T14:51:29.362Z,17.60
2022-10-07T14:54:05.048Z,17.60
2022-10-07T14:56:34.624Z,17.60
2022-10-07T14:59:01.461Z,17.60
2022-10-07T15:01:29.728Z,17.60
2022-10-07T15:03:57.770Z,17.60
2022-10-07T15:06:25.298Z,17.60
2022-10-07T15:08:51.995Z,17.60
2022-10-07T15:11:20.781Z,17.60
2022-10-07T15:13:48.465Z,17.50
2022-10-07T15:16:18.178Z,17.50
2022-10-07T15:18:51.105Z,17.50
2022-10-07T15:21:19.311Z,17.60
2022-10-07T15:23:53.291Z,17.60
2022-10-07T15:26:23.496Z,17.60
2022-10-07T15:28:57.946Z,17.60
2022-10-07T15:31:28.026Z,17.60
2022-10-07T15:33:57.726Z,17.70
2022-10-07T15:36:26.288Z,17.60
2022-10-07T15:38:53.256Z,17.60
2022-10-07T15:41:30.789Z,17.60
2022-10-07T15:43:59.117Z,17.60
2022-10-07T15:46:26.438Z,17.60
2022-10-07T15:48:57.333Z,17.60
2022-10-07T15:51:25.544Z,17.50
2022-10-07T15:53:53.068Z,17.50
2022-10-07T15:56:19.943Z,17.40
2022-10-07T15:58:47.724Z,17.30
2022-10-07T16:01:15.465Z,17.30
2022-10-07T16:03:46.211Z,17.30
2022-10-07T16:06:23.823Z,17.30
2022-10-07T16:08:53.574Z,17.20
2022-10-07T16:11:20.496Z,17.20
2022-10-07T16:13:48.247Z,17.20
2022-10-07T16:16:18.915Z,17.20
2022-10-07T16:18:48.044Z,17.20
2022-10-07T16:21:16.246Z,17.10
2022-10-07T16:23:45.900Z,17.10
2022-10-07T16:26:15.490Z,17.10
2022-10-07T16:29:02.905Z,17.00
2022-10-07T16:31:31.597Z,17.00
2022-10-07T16:33:58.436Z,17.00
2022-10-07T16:36:25.938Z,16.90
2022-10-07T16:38:53.930Z,16.90
2022-10-07T16:41:21.414Z,16.90
2022-10-07T16:43:48.161Z,16.80
2022-10-07T16:46:20.291Z,16.80
2022-10-07T16:48:48.116Z,16.70
2022-10-07T16:51:23.576Z,16.60
2022-10-07T16:53:55.416Z,16.50
2022-10-07T16:56:23.289Z,16.50
2022-10-07T16:58:56.463Z,16.40
2022-10-07T17:01:25.376Z,16.30
2022-10-07T17:03:53.093Z,16.30
2022-10-07T17:06:21.435Z,16.30
2022-10-07T17:08:49.061Z,16.20
2022-10-07T17:11:30.512Z,16.10
2022-10-07T17:14:18.614Z,16.20
2022-10-07T17:16:48.548Z,16.10
2022-10-07T17:19:17.881Z,16.10
2022-10-07T17:21:46.217Z,16.00
2022-10-07T17:24:13.530Z,16.00
2022-10-07T17:26:40.305Z,16.00
2022-10-07T17:29:09.881Z,16.00
2022-10-07T17:31:39.330Z,15.90
2022-10-07T17:34:06.986Z,15.90
2022-10-07T17:36:34.424Z,15.80
2022-10-07T17:39:01.430Z,15.80
2022-10-07T17:41:31.058Z,15.80
2022-10-07T17:43:59.851Z,15.70
2022-10-07T17:46:29.527Z,15.70
2022-10-07T17:48:58.323Z,15.70
2022-10-07T17:51:27.966Z,15.70
2022-10-07T17:54:03.291Z,15.60
2022-10-07T17:56:34.532Z,15.60
2022-10-07T17:59:01.698Z,15.60
2022-10-07T18:01:31.698Z,15.60
2022-10-07T18:04:03.574Z,15.60
2022-10-07T18:06:33.552Z,15.50
2022-10-07T18:09:04.239Z,15.50
2022-10-07T18:11:50.043Z,15.40
2022-10-07T18:14:35.514Z,15.40
2022-10-07T18:17:02.439Z,15.30
2022-10-07T18:19:29.921Z,15.30
2022-10-07T18:21:56.815Z,15.30
2022-10-07T18:24:28.718Z,15.30
2022-10-07T18:26:58.788Z,15.30
2022-10-07T18:29:31.090Z,15.30
2022-10-07T18:31:57.893Z,15.30
2022-10-07T18:34:24.990Z,15.20
2022-10-07T18:36:56.277Z,15.20
2022-10-07T18:39:23.744Z,15.20
2022-10-07T18:41:50.799Z,15.20
2022-10-07T18:44:17.429Z,15.10
2022-10-07T18:46:44.063Z,15.10
2022-10-07T18:49:13.644Z,15.10
2022-10-07T18:51:41.125Z,15.10
2022-10-07T18:54:07.778Z,15.10
2022-10-07T18:56:38.434Z,15.10
2022-10-07T18:59:08.294Z,15.00
2022-10-07T19:01:35.115Z,15.00
2022-10-07T19:04:03.077Z,14.90
2022-10-07T19:06:32.323Z,14.90
2022-10-07T19:09:01.584Z,14.90
2022-10-07T19:11:32.580Z,14.90
2022-10-07T19:14:00.382Z,14.80
2022-10-07T19:16:30.651Z,14.80
2022-10-07T19:18:59.132Z,14.70
2022-10-07T19:21:26.343Z,14.70
2022-10-07T19:23:54.819Z,14.70
2022-10-07T19:26:24.714Z,14.70
2022-10-07T19:28:52.709Z,14.60
2022-10-07T19:31:24.742Z,14.60
2022-10-07T19:33:57.562Z,14.60
2022-10-07T19:36:25.304Z,14.50
2022-10-07T19:38:56.317Z,14.50
2022-10-07T19:41:25.601Z,14.50
2022-10-07T19:43:52.242Z,14.40
2022-10-07T19:46:21.103Z,14.40
2022-10-07T19:48:48.176Z,14.40
2022-10-07T19:51:17.748Z,14.40
2022-10-07T19:53:47.070Z,14.30
2022-10-07T19:56:15.740Z,14.30
2022-10-07T19:58:47.876Z,14.30
2022-10-07T20:01:16.496Z,14.30
2022-10-07T20:03:43.428Z,14.30
2022-10-07T20:06:11.338Z,14.30
2022-10-07T20:08:40.238Z,14.20
2022-10-07T20:11:07.609Z,14.20
2022-10-07T20:13:35.802Z,14.20
2022-10-07T20:16:12.642Z,14.20
2022-10-07T20:18:42.661Z,14.20
2022-10-07T20:21:13.182Z,14.20
2022-10-07T20:23:41.325Z,14.10
2022-10-07T20:26:10.259Z,14.10
2022-10-07T20:28:40.473Z,14.10
2022-10-07T20:31:12.758Z,14.10
2022-10-07T20:33:42.358Z,14.10
2022-10-07T20:36:11.051Z,14.10
2022-10-07T20:38:56.336Z,14.00
2022-10-07T20:41:42.510Z,14.00
2022-10-07T20:44:10.479Z,14.00
2022-10-07T20:46:37.942Z,13.90
2022-10-07T20:49:21.178Z,13.90
2022-10-07T20:51:56.882Z,13.90
2022-10-07T20:54:24.863Z,13.80
2022-10-07T20:56:52.279Z,13.80
2022-10-07T20:59:19.566Z,13.80
2022-10-07T21:01:46.413Z,13.70
2022-10-07T21:04:15.242Z,13.70
2022-10-07T21:06:42.439Z,13.70
2022-10-07T21:09:10.169Z,13.70
2022-10-07T21:11:37.646Z,13.70
2022-10-07T21:14:04.507Z,13.70
2022-10-07T21:16:32.349Z,13.70
2022-10-07T21:18:59.086Z,13.70
2022-10-07T21:21:25.907Z,13.70
2022-10-07T21:23:52.937Z,13.70
2022-10-07T21:26:21.182Z,13.70
2022-10-07T21:28:48.401Z,13.60
2022-10-07T21:31:17.862Z,13.60
2022-10-07T21:33:47.901Z,13.60
2022-10-07T21:36:16.665Z,13.60
2022-10-07T21:38:44.736Z,13.60
2022-10-07T21:41:14.096Z,13.60
2022-10-07T21:43:41.933Z,13.50
2022-10-07T21:46:08.969Z,13.50
2022-10-07T21:48:36.044Z,13.50
2022-10-07T21:51:08.654Z,13.50
2022-10-07T21:53:36.523Z,13.50
2022-10-07T21:56:09.864Z,13.40
2022-10-07T21:58:37.020Z,13.40
2022-10-07T22:01:11.521Z,13.40
2022-10-07T22:03:38.311Z,13.40
2022-10-07T22:06:07.749Z,13.40
2022-10-07T22:08:35.336Z,13.40
2022-10-07T22:11:06.786Z,13.40
2022-10-07T22:13:37.556Z,13.40
2022-10-07T22:16:07.858Z,13.40
2022-10-07T22:18:36.058Z,13.40
2022-10-07T22:21:10.860Z,13.40
2022-10-07T22:23:43.421Z,13.40
2022-10-07T22:26:15.003Z,13.50
2022-10-07T22:28:41.858Z,13.50
2022-10-07T22:31:09.726Z,13.40
2022-10-07T22:33:41.375Z,13.40
2022-10-07T22:36:11.276Z,13.50
2022-10-07T22:38:40.814Z,13.50
2022-10-07T22:41:10.552Z,13.50
2022-10-07T22:43:44.924Z,13.50
2022-10-07T22:46:14.457Z,13.60
2022-10-07T22:48:43.201Z,13.60
2022-10-07T22:51:14.534Z,13.60
2022-10-07T22:53:44.598Z,13.60
2022-10-07T22:56:13.781Z,13.60
2022-10-07T22:58:43.194Z,13.60
2022-10-07T23:01:15.298Z,13.60
2022-10-07T23:03:44.043Z,13.60
2022-10-07T23:06:17.661Z,13.60
2022-10-07T23:08:45.119Z,13.60
2022-10-07T23:11:16.636Z,13.60
2022-10-07T23:13:44.652Z,13.60
2022-10-07T23:16:15.465Z,13.60
2022-10-07T23:18:44.601Z,13.70
2022-10-07T23:21:20.431Z,13.60
2022-10-07T23:23:49.479Z,13.60
2022-10-07T23:26:21.339Z,13.60
2022-10-07T23:28:49.487Z,13.60
2022-10-07T23:31:18.397Z,13.60
2022-10-07T23:33:47.302Z,13.60
2022-10-07T23:36:15.865Z,13.70
2022-10-07T23:38:44.541Z,13.70
2022-10-07T23:41:12.842Z,13.70
2022-10-07T23:43:39.976Z,13.70
2022-10-07T23:46:10.426Z,13.70
2022-10-07T23:48:37.160Z,13.70
2022-10-07T23:51:05.899Z,13.70
2022-10-07T23:53:34.151Z,13.60
2022-10-07T23:56:01.122Z,13.70
2022-10-07T23:58:30.248Z,13.70
